Time;durP1;ratioP1;P1;durP2;ratioP2;P2;SDS_P1;SDS_P2;PMS_P1;PMS_P2;Temp;Humidity;BMP_temperature;BMP_pressure;BME280_temperature;BME280_humidity;BME280_pressure;Samples;Min_cycle;Max_cycle;Signal;HPM_P1;HPM_P2
2022/06/26 00:00:12;;;;;;;16.57;15.00;;;19.80;99.90;;;;;;5033681;28;20478;-82
2022/06/26 00:02:37;;;;;;;19.43;17.40;;;19.80;99.90;;;;;;5038287;28;20547;-80
2022/06/26 00:05:06;;;;;;;20.63;18.53;;;19.70;99.90;;;;;;5029559;28;20435;-82
2022/06/26 00:07:31;;;;;;;15.97;14.27;;;19.60;99.90;;;;;;5026853;28;20207;-82
2022/06/26 00:09:57;;;;;;;14.90;13.30;;;19.50;99.90;;;;;;5033611;28;20428;-82
2022/06/26 00:12:22;;;;;;;16.67;15.07;;;19.50;99.90;;;;;;5028152;28;20200;-81
2022/06/26 00:14:48;;;;;;;15.93;14.37;;;19.50;1.00;;;;;;5036084;28;20616;-82
2022/06/26 00:17:13;;;;;;;16.67;14.97;;;19.50;1.00;;;;;;5033796;28;20226;-84
2022/06/26 00:19:39;;;;;;;17.40;15.70;;;19.50;1.00;;;;;;5022538;28;20226;-81
2022/06/26 00:22:06;;;;;;;15.93;14.50;;;19.60;1.00;;;;;;5027853;28;20191;-80
2022/06/26 00:24:36;;;;;;;15.80;12.43;;;19.60;1.00;;;;;;5031189;28;20257;-81
2022/06/26 00:27:06;;;;;;;13.80;11.63;;;19.60;1.00;;;;;;5035229;28;21023;-81
2022/06/26 00:29:33;;;;;;;12.20;11.00;;;19.60;1.00;;;;;;5045212;28;20467;-82
2022/06/26 00:31:59;;;;;;;15.20;12.30;;;19.60;1.00;;;;;;5028945;28;20425;-82
2022/06/26 00:34:25;;;;;;;11.27;10.17;;;19.50;1.00;;;;;;5029715;28;20431;-81
2022/06/26 00:36:51;;;;;;;13.33;11.10;;;19.50;1.00;;;;;;5038121;28;20459;-83
2022/06/26 00:39:16;;;;;;;14.03;10.83;;;19.50;1.00;;;;;;5027682;28;20209;-81
2022/06/26 00:41:42;;;;;;;12.97;11.40;;;19.50;1.00;;;;;;5031485;28;20702;-81
2022/06/26 00:44:15;;;;;;;13.93;11.00;;;19.50;1.00;;;;;;5032596;28;20181;-82
2022/06/26 00:46:40;;;;;;;14.27;12.13;;;19.40;1.00;;;;;;5035001;28;20202;-81
2022/06/26 00:49:06;;;;;;;12.83;11.73;;;19.40;1.00;;;;;;5032227;28;20457;-80
2022/06/26 00:51:31;;;;;;;11.23;10.13;;;19.40;1.00;;;;;;5029235;28;20334;-80
2022/06/26 00:53:57;;;;;;;13.10;11.77;;;19.30;1.00;;;;;;5029926;28;20188;-81
2022/06/26 00:56:22;;;;;;;12.60;10.90;;;19.30;1.00;;;;;;5031778;28;20190;-83
2022/06/26 00:58:48;;;;;;;12.87;11.33;;;19.20;1.00;;;;;;5026358;28;20233;-82
2022/06/26 01:01:13;;;;;;;13.90;12.60;;;19.20;1.00;;;;;;5031338;28;20232;-81
2022/06/26 01:03:39;;;;;;;14.33;12.93;;;19.10;1.00;;;;;;5029770;28;20191;-81
2022/06/26 01:06:09;;;;;;;15.90;12.87;;;19.00;1.00;;;;;;5022481;28;20182;-84
2022/06/26 01:08:35;;;;;;;17.33;15.53;;;19.00;1.00;;;;;;5025201;28;20319;-81
2022/06/26 01:11:17;;;;;;;16.40;14.60;;;18.90;1.00;;;;;;5031244;28;20460;-83
2022/06/26 01:13:47;;;;;;;17.60;13.90;;;18.80;1.00;;;;;;5031081;28;20854;-83
2022/06/26 01:16:17;;;;;;;20.73;14.17;;;18.80;1.00;;;;;;5029991;28;20436;-81
2022/06/26 01:18:48;;;;;;;16.43;14.73;;;18.80;1.00;;;;;;5037942;28;20474;-82
2022/06/26 01:21:15;;;;;;;26.47;15.60;;;18.80;1.00;;;;;;5033172;28;20865;-82
2022/06/26 01:23:41;;;;;;;17.27;13.53;;;18.70;1.00;;;;;;5030416;28;20440;-82
2022/06/26 01:26:07;;;;;;;16.13;13.40;;;18.60;1.00;;;;;;5027635;28;20429;-82
2022/06/26 01:28:32;;;;;;;13.40;12.20;;;18.60;1.00;;;;;;5030201;28;20204;-82
2022/06/26 01:30:58;;;;;;;13.93;12.50;;;18.60;1.00;;;;;;5026678;28;20185;-81
2022/06/26 01:33:24;;;;;;;14.10;12.80;;;18.70;1.00;;;;;;5031743;28;20209;-82
2022/06/26 01:35:49;;;;;;;16.37;13.07;;;18.70;1.00;;;;;;5032473;28;20184;-82
2022/06/26 01:38:17;;;;;;;15.67;13.77;;;18.80;1.00;;;;;;5033517;28;20205;-85
2022/06/26 01:40:44;;;;;;;13.37;12.17;;;18.80;1.00;;;;;;5029262;28;21773;-82
2022/06/26 01:43:12;;;;;;;14.03;12.53;;;18.80;1.00;;;;;;5027415;28;20449;-84
2022/06/26 01:45:46;;;;;;;15.07;12.90;;;18.80;1.00;;;;;;5030433;28;20435;-86
2022/06/26 01:48:12;;;;;;;14.87;13.33;;;18.80;1.00;;;;;;5026529;28;21018;-83
2022/06/26 01:50:38;;;;;;;15.77;13.80;;;18.80;1.00;;;;;;5035889;28;20470;-83
2022/06/26 01:53:04;;;;;;;14.83;13.47;;;18.80;1.00;;;;;;5028957;28;20954;-83
2022/06/26 01:55:30;;;;;;;15.60;13.87;;;18.80;1.00;;;;;;5032326;28;20274;-82
2022/06/26 01:57:55;;;;;;;15.80;14.30;;;18.90;1.00;;;;;;5036204;28;20489;-85
2022/06/26 02:00:21;;;;;;;13.50;12.13;;;18.90;1.00;;;;;;5037605;28;20499;-83
2022/06/26 02:02:47;;;;;;;12.97;11.70;;;18.90;1.00;;;;;;5035682;28;20244;-82
2022/06/26 02:05:12;;;;;;;15.30;12.00;;;18.90;1.00;;;;;;5032935;28;20198;-83
2022/06/26 02:07:38;;;;;;;13.60;12.17;;;19.00;1.00;;;;;;5038441;28;20203;-82
2022/06/26 02:15:33;;;;;;;16.90;13.00;;;18.90;1.00;;;;;;5034821;28;20462;-81
2022/06/26 02:17:58;;;;;;;14.70;13.40;;;18.80;1.00;;;;;;5029086;28;20454;-82
2022/06/26 02:20:24;;;;;;;14.67;12.20;;;18.80;1.00;;;;;;5028513;28;20684;-82
2022/06/26 02:22:49;;;;;;;14.33;12.93;;;18.80;1.00;;;;;;5028457;28;20553;-83
2022/06/26 02:25:15;;;;;;;13.87;12.47;;;18.70;1.00;;;;;;5030640;28;20592;-82
2022/06/26 02:27:41;;;;;;;12.60;11.50;;;18.70;1.00;;;;;;5038569;28;20291;-82
2022/06/26 02:30:06;;;;;;;14.70;12.67;;;18.70;1.00;;;;;;5029670;28;20190;-83
2022/06/26 02:32:32;;;;;;;13.17;11.90;;;18.80;1.00;;;;;;5032376;28;21140;-84
2022/06/26 02:34:58;;;;;;;15.80;12.77;;;18.80;1.00;;;;;;5027283;28;20184;-83
2022/06/26 02:37:23;;;;;;;15.10;12.90;;;18.70;1.00;;;;;;5025661;28;20272;-82
2022/06/26 02:39:49;;;;;;;14.27;12.87;;;18.80;1.00;;;;;;5025921;28;20523;-83
2022/06/26 02:42:14;;;;;;;15.87;13.33;;;18.80;1.00;;;;;;5025309;28;20228;-82
2022/06/26 02:44:40;;;;;;;16.27;13.73;;;18.80;1.00;;;;;;5022376;28;20220;-83
2022/06/26 02:47:05;;;;;;;16.60;14.90;;;18.90;1.00;;;;;;5032080;28;20249;-85
2022/06/26 02:49:31;;;;;;;16.40;14.60;;;18.90;1.00;;;;;;5028515;28;20204;-82
2022/06/26 02:51:56;;;;;;;14.50;13.00;;;18.90;1.00;;;;;;5027019;28;20244;-82
2022/06/26 02:54:22;;;;;;;17.03;13.10;;;18.90;1.00;;;;;;5032554;28;20301;-83
2022/06/26 02:56:47;;;;;;;15.60;14.10;;;18.90;1.00;;;;;;5028886;28;20486;-81
2022/06/26 02:59:13;;;;;;;14.10;12.63;;;18.90;1.00;;;;;;5033597;28;20223;-82
2022/06/26 03:01:39;;;;;;;14.97;13.37;;;18.90;1.00;;;;;;5025476;28;20211;-82
2022/06/26 03:04:05;;;;;;;15.00;12.60;;;18.90;1.00;;;;;;5024498;28;20184;-83
2022/06/26 03:06:30;;;;;;;11.07;10.07;;;18.90;1.00;;;;;;5025763;28;20188;-82
2022/06/26 03:08:56;;;;;;;13.47;10.10;;;18.90;1.00;;;;;;5024977;28;20194;-82
2022/06/26 03:11:21;;;;;;;9.90;8.90;;;18.90;1.00;;;;;;5025509;28;20314;-83
2022/06/26 03:13:47;;;;;;;10.60;9.03;;;18.80;1.00;;;;;;5031311;28;20193;-82
2022/06/26 03:16:12;;;;;;;10.57;9.47;;;18.80;1.00;;;;;;5032378;28;20183;-81
2022/06/26 03:18:38;;;;;;;10.27;8.20;;;18.80;1.00;;;;;;5030403;28;20219;-83
2022/06/26 03:21:04;;;;;;;10.83;7.93;;;18.70;1.00;;;;;;5023240;28;20264;-83
2022/06/26 03:26:13;;;;;;;7.50;6.70;;;18.70;1.00;;;;;;5029543;28;20182;-84
2022/06/26 03:28:39;;;;;;;7.10;6.33;;;18.70;1.00;;;;;;5031529;28;20468;-83
2022/06/26 03:31:04;;;;;;;9.23;6.50;;;18.70;1.00;;;;;;5031699;28;20230;-83
2022/06/26 03:33:30;;;;;;;7.53;5.73;;;18.70;1.00;;;;;;5026642;28;20570;-83
2022/06/26 03:35:55;;;;;;;7.93;5.80;;;18.60;1.00;;;;;;5025146;28;20214;-83
2022/06/26 03:38:21;;;;;;;7.07;5.50;;;18.60;1.00;;;;;;5027164;28;20215;-83
2022/06/26 03:40:46;;;;;;;9.23;5.00;;;18.60;1.00;;;;;;5022367;28;20207;-81
2022/06/26 03:43:12;;;;;;;5.20;4.70;;;18.50;1.00;;;;;;5027461;28;20174;-82
2022/06/26 03:45:38;;;;;;;5.60;5.03;;;18.50;1.00;;;;;;5025088;28;20660;-83
2022/06/26 03:48:04;;;;;;;7.00;5.07;;;18.50;1.00;;;;;;5033287;28;20247;-83
2022/06/26 03:50:30;;;;;;;5.50;4.80;;;18.50;1.00;;;;;;5020991;28;20429;-83
2022/06/26 03:52:56;;;;;;;6.30;4.40;;;18.50;1.00;;;;;;5027770;28;20463;-86
2022/06/26 03:55:21;;;;;;;9.80;5.40;;;18.50;1.00;;;;;;5038829;28;20251;-84
2022/06/26 03:57:48;;;;;;;6.60;5.23;;;18.50;1.00;;;;;;5030787;28;20626;-82
2022/06/26 04:00:14;;;;;;;8.83;5.67;;;18.50;1.00;;;;;;5031297;28;20298;-83
2022/06/26 04:02:40;;;;;;;5.13;4.00;;;18.50;1.00;;;;;;5028878;28;20993;-82
2022/06/26 04:05:07;;;;;;;5.17;4.40;;;18.60;99.90;;;;;;5028495;28;20432;-83
2022/06/26 04:07:32;;;;;;;5.90;4.60;;;18.50;99.90;;;;;;5033630;28;20456;-82
2022/06/26 04:09:58;;;;;;;12.73;5.27;;;18.50;99.90;;;;;;5026583;28;20439;-83
2022/06/26 04:12:24;;;;;;;9.83;4.67;;;18.50;99.90;;;;;;5024311;28;20196;-84
2022/06/26 04:14:49;;;;;;;6.83;5.17;;;18.50;99.90;;;;;;5027403;28;20191;-84
2022/06/26 04:17:15;;;;;;;7.60;4.73;;;18.50;99.90;;;;;;5023137;28;20210;-83
2022/06/26 04:19:41;;;;;;;6.20;4.20;;;18.50;99.90;;;;;;5032780;28;20830;-83
2022/06/26 04:22:06;;;;;;;7.53;5.60;;;18.50;99.90;;;;;;5037226;28;20671;-83
2022/06/26 04:24:32;;;;;;;5.80;5.17;;;18.50;99.90;;;;;;5032953;28;20178;-83
2022/06/26 04:26:57;;;;;;;10.60;5.40;;;18.40;99.90;;;;;;5030718;28;20194;-83
2022/06/26 04:29:23;;;;;;;10.47;5.40;;;18.40;99.90;;;;;;5031979;28;20718;-83
2022/06/26 04:31:48;;;;;;;6.83;4.80;;;18.40;99.90;;;;;;5036093;28;20184;-82
2022/06/26 04:34:14;;;;;;;6.40;4.63;;;18.30;99.90;;;;;;5034193;28;20191;-83
2022/06/26 04:36:40;;;;;;;6.07;4.63;;;18.40;99.90;;;;;;5032391;28;21470;-82
2022/06/26 04:39:05;;;;;;;5.70;4.60;;;18.30;99.90;;;;;;5031201;28;20208;-81
2022/06/26 04:41:31;;;;;;;7.63;4.57;;;18.40;99.90;;;;;;5031567;28;20204;-84
2022/06/26 04:43:57;;;;;;;6.33;4.40;;;18.40;99.90;;;;;;5030771;28;20192;-84
2022/06/26 04:46:23;;;;;;;6.80;4.07;;;18.50;99.90;;;;;;5031020;28;21002;-83
2022/06/26 04:48:49;;;;;;;9.03;4.43;;;18.60;99.90;;;;;;5042442;28;20477;-84
2022/06/26 04:51:14;;;;;;;6.70;3.57;;;18.70;99.90;;;;;;5032767;28;20218;-82
2022/06/26 04:53:40;;;;;;;4.40;4.00;;;18.70;95.00;;;;;;5033275;28;20334;-83
2022/06/26 04:56:06;;;;;;;9.27;4.30;;;18.70;1.00;;;;;;5031855;28;20189;-85
2022/06/26 04:58:31;;;;;;;6.07;3.43;;;18.80;1.00;;;;;;5028948;28;20202;-82
2022/06/26 05:00:58;;;;;;;6.80;3.57;;;18.90;1.00;;;;;;5031327;28;21012;-83
2022/06/26 05:03:23;;;;;;;7.67;3.80;;;19.00;1.00;;;;;;5032561;28;20181;-82
2022/06/26 05:05:49;;;;;;;5.50;3.43;;;19.10;99.90;;;;;;5033813;28;20461;-83
2022/06/26 05:08:14;;;;;;;6.30;3.43;;;19.20;1.00;;;;;;5034481;28;20210;-83
2022/06/26 05:10:40;;;;;;;8.20;3.40;;;19.50;99.90;;;;;;5027477;28;20839;-82
2022/06/26 05:13:05;;;;;;;5.17;3.90;;;19.80;99.90;;;;;;5028947;28;20189;-86
2022/06/26 05:15:31;;;;;;;9.00;3.57;;;20.10;99.90;;;;;;5031178;28;20555;-84
2022/06/26 05:17:56;;;;;;;6.93;3.77;;;20.40;98.40;;;;;;5032236;28;20237;-82
2022/06/26 05:20:22;;;;;;;7.93;4.00;;;20.60;99.90;;;;;;5034335;28;20628;-83
2022/06/26 05:22:48;;;;;;;4.87;4.07;;;20.70;1.00;;;;;;5025824;28;20268;-83
2022/06/26 05:25:13;;;;;;;7.53;4.07;;;20.90;1.00;;;;;;5031293;28;20189;-82
2022/06/26 05:27:39;;;;;;;5.30;3.50;;;21.00;99.90;;;;;;5035179;28;20205;-83
2022/06/26 05:30:05;;;;;;;4.60;3.80;;;21.00;99.90;;;;;;5042850;28;20648;-83
2022/06/26 05:32:30;;;;;;;7.07;3.83;;;21.00;26.70;;;;;;5029761;28;20205;-84
2022/06/26 05:34:56;;;;;;;4.60;3.80;;;21.10;18.60;;;;;;5027714;28;20451;-82
2022/06/26 05:37:21;;;;;;;5.70;3.80;;;21.10;2.80;;;;;;5031865;28;20193;-83
2022/06/26 05:39:47;;;;;;;6.00;3.77;;;21.10;1.00;;;;;;5029247;28;20217;-84
2022/06/26 05:42:12;;;;;;;4.83;3.70;;;21.20;1.00;;;;;;5038196;28;20181;-81
2022/06/26 05:44:38;;;;;;;4.10;3.70;;;21.40;1.00;;;;;;5024938;28;20592;-81
2022/06/26 05:47:04;;;;;;;5.33;4.23;;;21.60;99.90;;;;;;5027929;28;20657;-82
2022/06/26 05:49:30;;;;;;;5.13;3.43;;;21.70;99.90;;;;;;5033885;28;20214;-81
2022/06/26 05:51:56;;;;;;;3.70;3.40;;;22.00;99.90;;;;;;5029918;28;20446;-83
2022/06/26 05:54:22;;;;;;;6.33;4.03;;;22.20;99.90;;;;;;5031789;28;20188;-81
2022/06/26 05:56:47;;;;;;;6.77;3.40;;;22.40;69.60;;;;;;5026272;28;20195;-81
2022/06/26 05:59:13;;;;;;;5.20;3.87;;;22.50;14.20;;;;;;5036146;28;20493;-82
2022/06/26 06:01:38;;;;;;;5.30;3.27;;;22.50;1.00;;;;;;5029502;28;20241;-82
2022/06/26 06:04:04;;;;;;;4.80;3.60;;;22.70;1.00;;;;;;5030328;28;20230;-82
2022/06/26 06:06:30;;;;;;;4.83;4.33;;;22.90;1.00;;;;;;5029806;28;20187;-82
2022/06/26 06:08:55;;;;;;;4.10;3.53;;;23.20;1.00;;;;;;5031391;28;20213;-81
2022/06/26 06:11:21;;;;;;;6.10;4.07;;;23.40;1.00;;;;;;5029646;28;20189;-83
2022/06/26 06:13:46;;;;;;;6.80;3.47;;;23.70;1.00;;;;;;5031040;28;20212;-81
2022/06/26 06:16:12;;;;;;;4.27;3.17;;;24.60;1.00;;;;;;5032116;28;20202;-80
2022/06/26 06:18:38;;;;;;;6.33;3.10;;;26.30;99.90;;;;;;5036332;28;20278;-82
2022/06/26 06:21:03;;;;;;;3.50;2.63;;;29.20;99.90;;;;;;5033712;28;20209;-83
2022/06/26 06:23:29;;;;;;;4.93;2.97;;;33.30;99.90;;;;;;5035384;28;20220;-82
2022/06/26 06:25:55;;;;;;;3.70;2.07;;;35.10;99.90;;;;;;5037480;28;20193;-81
2022/06/26 06:28:20;;;;;;;3.13;2.43;;;35.80;99.90;;;;;;5030210;28;20210;-81
2022/06/26 06:30:46;;;;;;;3.77;2.43;;;35.20;99.90;;;;;;5033375;28;20201;-83
2022/06/26 06:33:11;;;;;;;2.60;2.40;;;35.00;99.90;;;;;;5030333;28;20186;-85
2022/06/26 06:35:37;;;;;;;4.60;1.70;;;37.40;99.90;;;;;;5036296;28;20256;-82
2022/06/26 06:38:03;;;;;;;4.77;2.53;;;38.70;99.90;;;;;;5028631;28;20308;-80
2022/06/26 06:40:29;;;;;;;4.40;2.20;;;37.00;99.90;;;;;;5029629;28;20210;-82
2022/06/26 06:42:55;;;;;;;3.90;2.00;;;35.30;99.90;;;;;;5033933;28;20206;-82
2022/06/26 06:45:21;;;;;;;3.33;2.37;;;36.50;99.90;;;;;;5048304;23;20508;-85
2022/06/26 06:47:46;;;;;;;2.87;1.97;;;39.10;99.90;;;;;;5013657;28;20207;-84
2022/06/26 06:50:12;;;;;;;4.47;2.10;;;40.40;99.90;;;;;;5013604;28;20197;-85
2022/06/26 06:52:37;;;;;;;3.23;2.27;;;39.40;99.90;;;;;;4996082;28;20223;-86
2022/06/26 06:55:04;;;;;;;3.60;1.80;;;37.20;99.90;;;;;;5014335;28;20214;-86
2022/06/26 06:57:30;;;;;;;2.20;2.00;;;35.10;99.90;;;;;;5014125;28;20190;-86
2022/06/26 06:59:55;;;;;;;2.50;1.57;;;33.50;99.90;;;;;;5016508;28;20464;-85
2022/06/26 07:02:21;;;;;;;2.60;1.60;;;32.10;99.90;;;;;;5016980;28;20202;-85
2022/06/26 07:04:46;;;;;;;3.10;1.83;;;31.50;99.90;;;;;;5017542;28;20663;-85
2022/06/26 07:07:12;;;;;;;2.83;1.90;;;31.00;99.90;;;;;;5011347;28;20199;-85
2022/06/26 07:09:38;;;;;;;3.20;1.50;;;31.00;99.90;;;;;;5009339;28;20180;-86
2022/06/26 07:12:05;;;;;;;11.03;2.00;;;31.40;99.90;;;;;;5004422;28;20228;-85
2022/06/26 07:14:31;;;;;;;4.57;3.43;;;31.20;99.90;;;;;;4988826;28;20211;-85
2022/06/26 07:16:56;;;;;;;4.50;2.00;;;31.30;99.90;;;;;;5003958;28;20949;-85
2022/06/26 07:19:22;;;;;;;2.57;1.57;;;31.10;99.90;;;;;;5004983;28;20198;-85
2022/06/26 07:21:47;;;;;;;2.57;2.10;;;32.70;99.90;;;;;;5012117;28;20203;-85
2022/06/26 07:24:14;;;;;;;7.87;2.13;;;33.60;99.90;;;;;;5012385;28;20174;-85
2022/06/26 07:26:40;;;;;;;3.23;1.80;;;33.20;99.90;;;;;;5007128;28;20213;-84
2022/06/26 07:29:08;;;;;;;3.70;1.80;;;32.20;99.90;;;;;;5004149;28;20480;-86
2022/06/26 07:31:34;;;;;;;2.27;1.70;;;36.40;99.90;;;;;;5012129;28;20437;-86
2022/06/26 07:34:18;;;;;;;3.00;1.37;;;39.20;99.90;;;;;;5012979;28;20476;-86
2022/06/26 07:36:46;;;;;;;2.20;1.70;;;40.10;99.90;;;;;;4995424;28;20720;-86
2022/06/26 07:39:13;;;;;;;3.00;1.40;;;40.10;99.90;;;;;;4994934;28;20433;-86
2022/06/26 07:41:41;;;;;;;2.17;1.70;;;39.20;99.90;;;;;;5009124;28;20492;-86
2022/06/26 07:44:06;;;;;;;2.23;1.57;;;40.00;99.90;;;;;;5003361;28;20465;-86
2022/06/26 07:46:34;;;;;;;4.90;1.60;;;39.10;99.90;;;;;;5000771;28;20847;-86
2022/06/26 07:49:00;;;;;;;3.97;1.77;;;38.40;99.90;;;;;;5010177;28;20598;-86
2022/06/26 07:51:26;;;;;;;1.90;1.33;;;36.80;96.70;;;;;;5007423;28;20544;-86
2022/06/26 07:53:51;;;;;;;4.90;1.40;;;36.80;97.10;;;;;;4984733;28;20517;-85
2022/06/26 07:56:17;;;;;;;3.20;1.40;;;36.00;94.70;;;;;;5006128;28;20245;-86
2022/06/26 07:58:43;;;;;;;2.20;1.30;;;35.10;92.40;;;;;;5017976;28;20187;-86
2022/06/26 08:01:08;;;;;;;1.73;1.30;;;34.10;90.40;;;;;;5017757;28;20238;-85
2022/06/26 08:03:34;;;;;;;2.43;1.33;;;33.10;86.90;;;;;;5018648;28;20206;-85
2022/06/26 08:06:00;;;;;;;3.87;1.30;;;33.00;88.40;;;;;;5018173;28;20702;-85
2022/06/26 08:08:26;;;;;;;2.33;1.30;;;32.80;89.20;;;;;;5000450;28;20190;-84
2022/06/26 08:10:52;;;;;;;1.80;1.50;;;33.10;91.20;;;;;;5017323;28;20179;-85
2022/06/26 08:13:17;;;;;;;3.27;1.43;;;32.90;90.30;;;;;;5018009;28;20428;-85
2022/06/26 08:15:43;;;;;;;3.40;1.53;;;31.90;86.50;;;;;;5014745;28;20222;-85
2022/06/26 08:18:09;;;;;;;1.90;1.30;;;31.00;86.00;;;;;;5018005;28;20191;-85
2022/06/26 08:20:35;;;;;;;3.60;1.50;;;30.40;85.20;;;;;;5018531;28;20191;-85
2022/06/26 08:23:00;;;;;;;3.23;1.60;;;29.80;92.70;;;;;;5018965;28;20179;-85
2022/06/26 08:25:26;;;;;;;3.00;1.80;;;29.50;88.20;;;;;;5000677;28;20203;-85
2022/06/26 08:27:51;;;;;;;3.63;1.70;;;29.30;87.70;;;;;;5000170;28;20293;-84
2022/06/26 08:30:17;;;;;;;2.07;1.40;;;29.30;88.50;;;;;;5018167;28;20596;-85
2022/06/26 08:32:43;;;;;;;1.80;1.50;;;29.30;90.30;;;;;;5018142;28;20191;-85
2022/06/26 08:35:11;;;;;;;2.73;1.73;;;29.20;90.70;;;;;;5018320;28;20206;-85
2022/06/26 08:37:37;;;;;;;3.60;1.90;;;29.10;91.30;;;;;;5017979;28;20222;-85
2022/06/26 08:40:03;;;;;;;2.57;1.43;;;29.00;91.60;;;;;;4996767;28;21033;-85
2022/06/26 08:42:30;;;;;;;2.10;1.50;;;29.10;92.10;;;;;;5003476;28;20232;-85
2022/06/26 08:44:57;;;;;;;2.70;1.47;;;29.40;94.00;;;;;;5004888;28;20776;-85
2022/06/26 08:47:25;;;;;;;2.10;1.50;;;29.90;95.00;;;;;;4996409;28;20422;-85
2022/06/26 08:49:52;;;;;;;5.03;1.73;;;30.40;96.50;;;;;;5018026;28;20414;-86
2022/06/26 08:52:20;;;;;;;2.63;1.40;;;30.80;97.70;;;;;;5018079;28;20413;-85
2022/06/26 08:54:48;;;;;;;4.97;2.07;;;31.30;98.60;;;;;;5017582;28;20468;-85
2022/06/26 08:57:14;;;;;;;3.97;1.30;;;31.70;99.60;;;;;;5017588;28;20413;-85
2022/06/26 08:59:40;;;;;;;3.53;1.27;;;31.80;99.20;;;;;;5017157;28;20450;-85
2022/06/26 09:02:06;;;;;;;3.50;1.50;;;31.50;98.40;;;;;;5017484;28;20433;-85
2022/06/26 09:04:32;;;;;;;1.70;1.50;;;31.20;98.10;;;;;;5017076;28;20417;-85
2022/06/26 09:06:57;;;;;;;2.17;1.30;;;31.30;97.70;;;;;;4993572;28;20591;-85
2022/06/26 09:09:27;;;;;;;1.67;1.20;;;31.60;99.00;;;;;;5003990;28;20182;-85
2022/06/26 09:11:54;;;;;;;1.97;1.30;;;31.60;98.90;;;;;;5003811;28;20190;-86
2022/06/26 09:14:21;;;;;;;2.30;1.40;;;31.60;97.70;;;;;;5007622;28;20423;-86
2022/06/26 09:16:49;;;;;;;2.90;1.40;;;31.60;97.80;;;;;;4992508;28;20458;-85
2022/06/26 09:19:20;;;;;;;1.30;0.97;;;31.30;97.00;;;;;;5008888;28;20428;-85
2022/06/26 09:21:49;;;;;;;1.70;1.40;;;31.00;95.80;;;;;;5017788;28;20469;-85
2022/06/26 09:24:18;;;;;;;3.53;1.33;;;30.70;95.20;;;;;;5017461;28;20425;-86
2022/06/26 09:26:45;;;;;;;3.50;1.50;;;30.50;94.50;;;;;;5013935;28;20444;-86
2022/06/26 09:29:13;;;;;;;2.80;1.27;;;30.50;95.00;;;;;;4999094;28;20426;-85
2022/06/26 09:31:39;;;;;;;2.37;1.43;;;31.20;96.80;;;;;;5016458;28;20463;-86
2022/06/26 09:34:06;;;;;;;5.50;1.77;;;32.20;99.00;;;;;;4998706;28;20426;-86
2022/06/26 09:36:32;;;;;;;4.60;1.97;;;33.10;99.90;;;;;;5014875;28;20979;-86
2022/06/26 09:38:58;;;;;;;3.43;1.33;;;34.30;99.90;;;;;;4998082;28;20433;-86
2022/06/26 09:41:33;;;;;;;2.90;1.37;;;34.60;99.90;;;;;;5009733;28;20465;-85
2022/06/26 09:43:59;;;;;;;3.50;1.20;;;34.20;99.40;;;;;;5006135;28;20217;-85
2022/06/26 09:46:32;;;;;;;3.53;1.67;;;33.30;96.70;;;;;;5011816;28;20445;-85
2022/06/26 09:48:59;;;;;;;2.33;1.10;;;32.50;94.70;;;;;;5002599;28;20188;-85
2022/06/26 09:51:26;;;;;;;2.33;1.23;;;31.90;93.30;;;;;;5012146;28;20469;-85
2022/06/26 09:53:52;;;;;;;2.63;1.20;;;31.40;92.50;;;;;;5015745;28;20426;-85
2022/06/26 09:56:18;;;;;;;3.73;1.50;;;30.80;91.20;;;;;;5015911;28;20474;-85
2022/06/26 09:58:44;;;;;;;3.53;1.53;;;30.30;90.40;;;;;;5004663;28;20921;-85
2022/06/26 10:06:43;;;;;;;2.00;1.20;;;29.10;89.60;;;;;;5021845;28;20809;-85
2022/06/26 10:09:09;;;;;;;3.23;1.33;;;28.80;89.60;;;;;;5004098;28;20433;-85
2022/06/26 10:11:37;;;;;;;3.10;1.37;;;28.60;88.60;;;;;;5002972;28;20437;-84
2022/06/26 10:14:09;;;;;;;2.73;1.50;;;28.30;87.60;;;;;;5017879;28;20429;-84
2022/06/26 10:17:10;;;;;;;6.03;1.97;;;28.10;86.30;;;;;;5022027;28;20444;-85
2022/06/26 10:19:45;;;;;;;2.33;1.30;;;27.90;86.30;;;;;;5023161;28;20422;-85
2022/06/26 10:22:12;;;;;;;2.93;1.67;;;27.80;89.00;;;;;;5006925;28;20429;-85
2022/06/26 10:24:58;;;;;;;2.87;1.53;;;27.60;90.60;;;;;;5023491;28;20418;-85
2022/06/26 10:27:32;;;;;;;2.67;1.63;;;27.50;91.30;;;;;;5017071;28;20417;-85
2022/06/26 10:30:13;;;;;;;2.43;1.40;;;27.40;92.80;;;;;;5003108;28;20425;-84
2022/06/26 10:32:39;;;;;;;2.93;1.50;;;27.30;93.70;;;;;;5018457;28;20418;-85
2022/06/26 10:35:06;;;;;;;3.33;1.33;;;27.20;93.60;;;;;;5018729;28;20926;-85
2022/06/26 10:37:45;;;;;;;5.37;1.83;;;27.00;93.80;;;;;;5001448;28;20433;-85
2022/06/26 10:43:13;;;;;;;4.20;1.73;;;26.40;94.40;;;;;;4989911;28;20426;-84
2022/06/26 10:45:40;;;;;;;6.27;1.53;;;26.30;94.80;;;;;;4990286;28;20549;-85
2022/06/26 10:48:16;;;;;;;3.50;1.53;;;26.30;95.60;;;;;;5014559;28;20458;-85
2022/06/26 10:50:42;;;;;;;4.30;1.80;;;26.30;96.20;;;;;;5018790;28;20418;-84
2022/06/26 10:53:20;;;;;;;4.07;2.30;;;26.30;96.40;;;;;;5017845;28;20435;-85
2022/06/26 10:55:50;;;;;;;4.00;1.50;;;26.30;96.70;;;;;;5017874;28;20945;-85
2022/06/26 10:58:30;;;;;;;3.97;1.60;;;26.40;97.40;;;;;;5017443;28;20460;-84
2022/06/26 11:00:59;;;;;;;3.97;1.93;;;26.40;99.40;;;;;;4999843;28;20453;-85
2022/06/26 11:03:26;;;;;;;2.13;1.77;;;26.50;99.60;;;;;;5000220;28;20981;-85
2022/06/26 11:05:53;;;;;;;8.33;1.67;;;26.50;99.40;;;;;;5009122;28;20434;-84
2022/06/26 11:08:27;;;;;;;7.00;2.20;;;26.40;99.90;;;;;;4994428;28;20421;-85
2022/06/26 11:10:57;;;;;;;3.60;1.50;;;26.30;99.90;;;;;;5011279;28;20921;-84
2022/06/26 11:13:23;;;;;;;4.80;1.63;;;26.10;99.90;;;;;;5015229;28;20491;-84
2022/06/26 11:15:49;;;;;;;2.83;1.83;;;26.00;99.90;;;;;;5001051;28;20853;-84
2022/06/26 11:18:15;;;;;;;2.67;1.60;;;25.90;99.90;;;;;;5018009;28;20409;-84
2022/06/26 11:20:49;;;;;;;3.33;1.80;;;25.80;99.90;;;;;;5014840;28;20229;-84
2022/06/26 11:23:28;;;;;;;2.83;1.80;;;25.80;99.90;;;;;;5018868;28;20437;-85
2022/06/26 11:25:57;;;;;;;4.33;2.27;;;25.90;99.90;;;;;;5000363;28;20452;-85
2022/06/26 11:28:34;;;;;;;2.60;1.80;;;26.10;99.90;;;;;;5014656;28;20422;-84
2022/06/26 11:31:02;;;;;;;2.80;1.40;;;26.10;99.90;;;;;;5002644;28;20433;-83
2022/06/26 11:33:31;;;;;;;4.07;2.00;;;26.10;99.90;;;;;;5005331;28;20476;-84
2022/06/26 11:36:12;;;;;;;4.33;2.47;;;26.00;99.90;;;;;;5022202;28;20861;-84
2022/06/26 11:38:38;;;;;;;3.50;1.50;;;25.80;99.90;;;;;;5016142;28;20513;-85
2022/06/26 11:41:07;;;;;;;2.73;1.67;;;25.80;99.90;;;;;;5011159;28;20980;-84
2022/06/26 11:43:33;;;;;;;2.70;1.57;;;26.00;99.90;;;;;;5014644;28;20468;-84
2022/06/26 11:46:03;;;;;;;3.93;1.67;;;26.40;99.90;;;;;;5006559;28;20517;-84
2022/06/26 11:48:29;;;;;;;3.27;1.63;;;26.80;99.90;;;;;;5014314;28;20423;-85
2022/06/26 11:50:57;;;;;;;5.13;1.43;;;27.10;99.90;;;;;;4994880;28;20492;-85
2022/06/26 11:53:29;;;;;;;3.80;1.70;;;27.40;99.90;;;;;;5019699;28;20417;-85
2022/06/26 11:55:57;;;;;;;2.93;1.63;;;27.50;99.90;;;;;;5023545;28;20445;-85
2022/06/26 11:58:25;;;;;;;4.80;1.60;;;27.40;99.90;;;;;;5019280;28;20418;-85
2022/06/26 12:01:09;;;;;;;3.20;1.60;;;27.20;99.90;;;;;;5004743;28;20479;-84
2022/06/26 12:03:47;;;;;;;5.33;1.63;;;26.80;99.90;;;;;;5014642;28;20427;-84
2022/06/26 12:06:28;;;;;;;4.07;1.60;;;26.50;99.90;;;;;;5006168;28;20444;-85
2022/06/26 12:08:56;;;;;;;3.17;1.43;;;26.10;99.90;;;;;;5014274;28;20517;-84
2022/06/26 12:11:22;;;;;;;4.90;1.63;;;25.80;99.90;;;;;;5022752;28;20417;-84
2022/06/26 12:13:47;;;;;;;2.67;1.67;;;25.60;99.90;;;;;;4998112;28;20434;-85
2022/06/26 12:16:14;;;;;;;3.43;1.50;;;25.50;99.90;;;;;;5013351;28;20437;-85
2022/06/26 12:18:41;;;;;;;3.23;1.83;;;25.30;99.90;;;;;;5014428;28;20669;-85
2022/06/26 12:21:22;;;;;;;4.33;1.83;;;25.10;99.90;;;;;;5017964;28;20518;-84
2022/06/26 12:23:49;;;;;;;2.77;1.73;;;25.10;99.90;;;;;;5020492;28;20441;-83
2022/06/26 12:26:22;;;;;;;3.73;1.67;;;25.10;99.90;;;;;;5022664;28;20806;-85
2022/06/26 12:29:03;;;;;;;3.57;2.00;;;25.10;99.90;;;;;;5021931;28;20497;-84
2022/06/26 12:31:29;;;;;;;2.13;1.60;;;25.10;99.90;;;;;;5019280;28;20432;-84
2022/06/26 12:33:55;;;;;;;4.50;1.70;;;25.10;99.90;;;;;;5013266;28;20428;-85
2022/06/26 12:36:21;;;;;;;3.90;1.93;;;25.20;99.90;;;;;;5015367;28;20488;-84
2022/06/26 12:38:47;;;;;;;2.57;1.40;;;25.30;99.90;;;;;;5013831;28;20217;-84
2022/06/26 12:41:19;;;;;;;5.27;2.03;;;25.50;99.90;;;;;;5020775;28;20222;-85
2022/06/26 12:43:51;;;;;;;3.90;2.27;;;25.50;99.90;;;;;;5013716;28;20413;-85
2022/06/26 12:46:17;;;;;;;4.57;1.70;;;25.40;99.90;;;;;;5042720;23;20492;-83
2022/06/26 12:48:43;;;;;;;5.97;2.00;;;25.20;99.90;;;;;;5019571;28;20500;-83
2022/06/26 12:51:09;;;;;;;3.63;1.73;;;25.30;99.90;;;;;;5023022;28;20469;-82
2022/06/26 12:53:34;;;;;;;4.60;2.10;;;25.50;99.90;;;;;;5012001;28;20659;-82
2022/06/26 12:56:00;;;;;;;3.30;2.00;;;25.50;99.90;;;;;;5008994;28;20434;-83
2022/06/26 12:58:26;;;;;;;3.43;1.60;;;25.40;99.90;;;;;;5011376;28;20224;-83
2022/06/26 13:00:52;;;;;;;3.50;2.27;;;25.30;99.90;;;;;;5008311;28;20217;-83